createdAt,value
2018-09-23T00:04:12.953Z,17.19
2018-09-23T00:09:08.561Z,17.34
2018-09-23T00:14:01.905Z,17.40
2018-09-23T00:18:55.333Z,17.44
2018-09-23T00:23:52.134Z,17.69
2018-09-23T00:28:45.914Z,17.60
2018-09-23T00:33:39.857Z,17.52
2018-09-23T00:38:33.520Z,17.62
2018-09-23T00:43:28.236Z,17.50
2018-09-23T00:48:21.608Z,17.40
2018-09-23T00:53:15.845Z,17.40
2018-09-23T00:58:16.082Z,17.52
2018-09-23T01:03:09.429Z,17.37
2018-09-23T01:08:02.638Z,17.35
2018-09-23T01:12:57.561Z,17.39
2018-09-23T01:17:51.164Z,17.36
2018-09-23T01:22:44.350Z,17.48
2018-09-23T01:27:37.674Z,17.45
2018-09-23T01:32:32.346Z,17.29
2018-09-23T01:37:26.748Z,17.20
2018-09-23T01:42:20.926Z,17.02
2018-09-23T01:47:15.146Z,17.01
2018-09-23T01:52:10.927Z,17.06
2018-09-23T01:57:05.676Z,17.18
2018-09-23T02:01:59.495Z,17.26
2018-09-23T02:06:52.938Z,17.34
2018-09-23T02:11:46.514Z,17.39
2018-09-23T02:16:39.740Z,17.29
2018-09-23T02:21:32.999Z,17.37
2018-09-23T02:26:26.576Z,17.37
2018-09-23T02:31:21.255Z,17.51
2018-09-23T02:36:15.422Z,17.65
2018-09-23T02:41:10.705Z,18.29
2018-09-23T02:46:04.637Z,18.52
2018-09-23T02:50:57.876Z,18.56
2018-09-23T02:55:51.214Z,18.94
2018-09-23T03:00:44.797Z,19.00
2018-09-23T03:05:38.261Z,19.39
2018-09-23T03:10:31.696Z,19.54
2018-09-23T03:15:24.952Z,19.90
2018-09-23T03:20:23.962Z,19.72
2018-09-23T03:25:18.285Z,20.39
2018-09-23T03:30:12.202Z,20.88
2018-09-23T03:35:08.900Z,21.17
2018-09-23T03:40:02.147Z,21.46
2018-09-23T03:44:57.017Z,21.63
2018-09-23T03:49:50.198Z,21.04
2018-09-23T03:54:43.963Z,20.55
2018-09-23T03:59:38.443Z,20.22
2018-09-23T04:04:31.798Z,19.70
2018-09-23T04:09:26.517Z,19.37
2018-09-23T04:14:20.463Z,19.24
2018-09-23T04:19:13.845Z,19.11
2018-09-23T04:24:07.161Z,19.18
2018-09-23T04:29:00.440Z,19.41
2018-09-23T04:33:53.622Z,19.61
2018-09-23T04:38:46.833Z,19.81
2018-09-23T04:43:40.137Z,19.59
2018-09-23T04:48:33.327Z,19.63
2018-09-23T04:53:27.002Z,19.44
2018-09-23T04:58:20.814Z,19.51
2018-09-23T05:03:14.103Z,18.93
2018-09-23T05:08:07.440Z,18.82
2018-09-23T05:13:00.841Z,19.03
2018-09-23T05:17:54.214Z,18.87
2018-09-23T05:22:47.437Z,18.73
2018-09-23T05:27:41.953Z,18.74
2018-09-23T05:32:35.082Z,18.78
2018-09-23T05:37:28.343Z,18.98
2018-09-23T05:42:22.101Z,19.22
2018-09-23T05:47:15.695Z,19.18
2018-09-23T05:52:09.000Z,19.22
2018-09-23T05:57:02.170Z,19.15
2018-09-23T06:01:55.382Z,19.24
2018-09-23T06:06:48.633Z,19.30
2018-09-23T06:11:41.891Z,19.55
2018-09-23T06:16:35.263Z,19.99
2018-09-23T06:21:28.450Z,20.30
2018-09-23T06:26:21.776Z,20.03
2018-09-23T06:31:15.060Z,19.74
2018-09-23T06:36:08.287Z,19.58
2018-09-23T06:41:01.470Z,19.84
2018-09-23T06:45:55.268Z,19.96
2018-09-23T06:50:48.432Z,19.98
2018-09-23T06:55:41.632Z,20.24
2018-09-23T07:00:34.762Z,20.40
2018-09-23T07:05:28.378Z,20.44
2018-09-23T07:10:21.775Z,20.91
2018-09-23T07:15:15.003Z,21.43
2018-09-23T07:20:08.285Z,21.57
2018-09-23T07:25:01.543Z,21.89
2018-09-23T07:29:54.786Z,22.03
2018-09-23T07:34:48.021Z,22.12
2018-09-23T07:39:41.223Z,22.19
2018-09-23T07:44:34.798Z,22.47
2018-09-23T07:49:27.988Z,22.84
2018-09-23T07:54:21.116Z,22.83
2018-09-23T07:59:14.286Z,23.13
2018-09-23T08:04:07.549Z,23.36
2018-09-23T08:09:00.994Z,23.51
2018-09-23T08:13:54.830Z,23.60
2018-09-23T08:18:47.947Z,23.78
2018-09-23T08:23:41.254Z,24.05
2018-09-23T08:28:34.589Z,24.19
2018-09-23T08:33:27.977Z,24.43
2018-09-23T08:38:22.220Z,24.55
2018-09-23T08:43:15.745Z,24.80
2018-09-23T08:48:09.160Z,24.79
2018-09-23T08:53:03.059Z,24.99
2018-09-23T08:57:56.338Z,25.06
2018-09-23T09:02:49.894Z,25.32
2018-09-23T09:07:43.458Z,25.47
2018-09-23T09:12:36.719Z,25.56
2018-09-23T09:17:30.017Z,25.70
2018-09-23T09:22:23.164Z,25.85
2018-09-23T09:27:16.467Z,25.94
2018-09-23T09:32:09.908Z,26.14
2018-09-23T09:37:03.132Z,26.28
2018-09-23T09:41:56.327Z,26.48
2018-09-23T09:46:49.602Z,26.67
2018-09-23T09:51:43.367Z,26.82
2018-09-23T09:56:36.613Z,27.16
2018-09-23T10:01:29.875Z,27.29
2018-09-23T10:06:23.162Z,27.37
2018-09-23T10:11:16.493Z,27.73
2018-09-23T10:16:09.780Z,27.98
2018-09-23T10:21:03.247Z,28.20
2018-09-23T10:25:56.531Z,28.11
2018-09-23T10:30:49.813Z,28.17
2018-09-23T10:35:43.058Z,28.20
2018-09-23T10:40:36.263Z,28.24
2018-09-23T10:45:29.508Z,28.18
2018-09-23T10:50:22.754Z,27.94
2018-09-23T10:55:16.057Z,27.90
2018-09-23T11:00:09.765Z,27.57
2018-09-23T11:05:02.966Z,27.55
2018-09-23T11:09:56.215Z,27.58
2018-09-23T11:14:49.518Z,27.73
2018-09-23T11:19:42.961Z,27.70
2018-09-23T11:24:36.224Z,27.95
2018-09-23T11:29:29.486Z,28.21
2018-09-23T11:34:22.729Z,28.12
2018-09-23T11:39:15.923Z,28.11
2018-09-23T11:44:09.241Z,28.25
2018-09-23T11:49:02.350Z,28.53
2018-09-23T11:53:56.389Z,28.49
2018-09-23T11:58:49.619Z,28.60
2018-09-23T12:03:43.008Z,28.63
2018-09-23T12:08:36.362Z,28.68
2018-09-23T12:13:29.733Z,28.85
2018-09-23T12:18:26.557Z,29.03
2018-09-23T12:23:20.104Z,29.08
2018-09-23T12:28:13.400Z,29.27
2018-09-23T12:33:06.646Z,29.28
2018-09-23T12:37:59.909Z,29.17
2018-09-23T12:42:53.159Z,29.27
2018-09-23T12:47:46.519Z,29.16
2018-09-23T12:52:39.796Z,29.12
2018-09-23T12:57:33.105Z,29.25
2018-09-23T13:02:26.400Z,29.34
2018-09-23T13:07:19.565Z,29.27
2018-09-23T13:12:12.742Z,29.28
2018-09-23T13:17:06.066Z,29.22
2018-09-23T13:21:59.354Z,29.26
2018-09-23T13:26:52.608Z,29.24
2018-09-23T13:31:45.805Z,29.24
2018-09-23T13:36:39.182Z,29.23
2018-09-23T13:41:32.381Z,29.14
2018-09-23T13:46:25.690Z,28.97
2018-09-23T13:51:19.026Z,28.90
2018-09-23T13:56:12.221Z,28.69
2018-09-23T14:01:05.545Z,28.58
2018-09-23T14:05:58.663Z,28.46
2018-09-23T14:10:51.916Z,28.40
2018-09-23T14:15:45.330Z,28.36
2018-09-23T14:20:38.639Z,28.25
2018-09-23T14:25:31.891Z,28.20
2018-09-23T14:30:25.279Z,28.18
2018-09-23T14:35:19.411Z,28.16
2018-09-23T14:40:12.675Z,28.14
2018-09-23T14:45:06.812Z,28.22
2018-09-23T14:50:00.235Z,28.24
2018-09-23T14:54:53.623Z,28.21
2018-09-23T14:59:46.938Z,28.20
2018-09-23T15:04:40.376Z,28.14
2018-09-23T15:09:33.871Z,28.06
2018-09-23T15:14:27.737Z,27.93
2018-09-23T15:19:20.982Z,27.81
2018-09-23T15:24:14.359Z,27.65
2018-09-23T15:29:07.773Z,27.50
2018-09-23T15:34:01.947Z,27.43
2018-09-23T15:38:56.063Z,27.17
2018-09-23T15:43:49.685Z,26.62
2018-09-23T15:48:42.978Z,26.14
2018-09-23T15:53:36.156Z,26.03
2018-09-23T15:58:32.967Z,25.75
2018-09-23T16:03:27.182Z,25.50
2018-09-23T16:08:20.324Z,25.38
2018-09-23T16:13:13.720Z,25.21
2018-09-23T16:18:07.141Z,25.04
2018-09-23T16:23:00.338Z,24.92
2018-09-23T16:27:53.555Z,24.69
2018-09-23T16:32:46.800Z,24.52
2018-09-23T16:37:40.182Z,24.43
2018-09-23T16:42:33.422Z,24.35
2018-09-23T16:47:26.813Z,24.17
2018-09-23T16:52:20.131Z,24.06
2018-09-23T16:57:13.503Z,23.74
2018-09-23T17:02:06.826Z,23.52
2018-09-23T17:07:00.039Z,23.35
2018-09-23T17:11:53.263Z,23.19
2018-09-23T17:16:46.606Z,23.09
2018-09-23T17:21:40.103Z,22.86
2018-09-23T17:26:33.613Z,22.66
2018-09-23T17:31:26.840Z,22.56
2018-09-23T17:36:20.178Z,22.58
2018-09-23T17:41:13.337Z,22.53
2018-09-23T17:46:06.587Z,22.39
2018-09-23T17:50:59.755Z,22.21
2018-09-23T17:55:53.065Z,22.05
2018-09-23T18:00:46.440Z,21.88
2018-09-23T18:05:39.798Z,21.77
2018-09-23T18:10:33.082Z,21.59
2018-09-23T18:15:26.392Z,21.62
2018-09-23T18:20:20.000Z,21.39
2018-09-23T18:25:13.203Z,21.27
2018-09-23T18:30:06.530Z,21.18
2018-09-23T18:35:02.022Z,21.18
2018-09-23T18:39:55.884Z,21.09
2018-09-23T18:44:49.043Z,21.08
2018-09-23T18:49:42.399Z,20.92
2018-09-23T18:54:41.147Z,20.80
2018-09-23T18:59:34.386Z,20.69
2018-09-23T19:04:27.576Z,20.68
2018-09-23T19:09:21.022Z,20.61
2018-09-23T19:14:14.364Z,20.51
2018-09-23T19:19:07.994Z,20.39
2018-09-23T19:24:01.407Z,20.48
2018-09-23T19:28:54.774Z,20.34
2018-09-23T19:33:48.276Z,20.36
2018-09-23T19:38:41.660Z,20.23
2018-09-23T19:43:35.077Z,20.22
2018-09-23T19:48:28.345Z,20.21
2018-09-23T19:53:21.592Z,20.10
2018-09-23T19:58:14.916Z,19.86
2018-09-23T20:03:08.076Z,19.77
2018-09-23T20:08:01.367Z,19.71
2018-09-23T20:12:54.613Z,19.54
2018-09-23T20:17:48.222Z,19.43
2018-09-23T20:22:41.473Z,19.42
2018-09-23T20:27:34.791Z,19.32
2018-09-23T20:32:28.040Z,19.38
2018-09-23T20:37:21.172Z,19.46
2018-09-23T20:42:14.361Z,19.53
2018-09-23T20:47:07.556Z,19.34
2018-09-23T20:52:00.756Z,19.24
2018-09-23T20:56:54.122Z,19.07
2018-09-23T21:01:47.344Z,19.00
2018-09-23T21:06:40.586Z,18.97
2018-09-23T21:11:33.793Z,18.80
2018-09-23T21:16:27.368Z,18.41
2018-09-23T21:21:20.605Z,18.37
2018-09-23T21:26:13.904Z,18.34
2018-09-23T21:31:07.036Z,18.17
2018-09-23T21:36:00.277Z,18.18
2018-09-23T21:40:54.132Z,18.15
2018-09-23T21:45:51.217Z,18.07
2018-09-23T21:50:44.864Z,18.14
2018-09-23T21:55:38.113Z,18.24
2018-09-23T22:00:36.998Z,18.12
2018-09-23T22:05:30.338Z,18.07
2018-09-23T22:10:23.903Z,18.16
2018-09-23T22:15:22.867Z,18.09
2018-09-23T22:20:16.173Z,18.07
2018-09-23T22:25:10.316Z,18.01
2018-09-23T22:30:03.799Z,17.97
2018-09-23T22:34:57.531Z,17.91
2018-09-23T22:39:50.806Z,17.83
2018-09-23T22:44:44.037Z,17.78
2018-09-23T22:49:37.219Z,17.68
2018-09-23T22:54:31.435Z,17.63
2018-09-23T22:59:24.782Z,17.56
2018-09-23T23:04:19.113Z,17.59
2018-09-23T23:09:12.474Z,17.62
2018-09-23T23:14:07.173Z,17.49
2018-09-23T23:19:00.890Z,17.48
2018-09-23T23:23:54.314Z,17.43
2018-09-23T23:28:47.566Z,17.35
2018-09-23T23:33:41.127Z,17.31
2018-09-23T23:38:35.178Z,17.19
2018-09-23T23:43:28.888Z,17.18
2018-09-23T23:48:22.331Z,17.07
2018-09-23T23:53:15.695Z,16.96
2018-09-23T23:58:09.542Z,16.89
